Time;durP1;ratioP1;P1;durP2;ratioP2;P2;SDS_P1;SDS_P2;PMS_P1;PMS_P2;Temp;Humidity;BMP_temperature;BMP_pressure;BME280_temperature;BME280_humidity;BME280_pressure;Samples;Min_cycle;Max_cycle;Signal;HPM_P1;HPM_P2
2023/08/04 00:01:26;;;;;;;5.68;1.05;;;;;;;;;;5023463;28;20116;-72
2023/08/04 00:03:52;;;;;;;5.22;1.27;;;;;;;;;;5022641;28;20041;-72
2023/08/04 00:06:18;;;;;;;5.45;1.15;;;;;;;;;;5023785;28;20471;-73
2023/08/04 00:08:44;;;;;;;3.50;1.10;;;;;;;;;;5023482;28;20497;-72
2023/08/04 00:11:10;;;;;;;1.75;0.75;;;;;;;;;;5019469;28;20042;-72
2023/08/04 00:13:37;;;;;;;3.13;1.00;;;;;;;;;;5022327;28;20140;-71
2023/08/04 00:16:10;;;;;;;2.67;1.00;;;;;;;;;;5038635;28;20042;-70
2023/08/04 00:18:37;;;;;;;2.03;0.93;;;;;;;;;;5022635;28;20052;-70
2023/08/04 00:21:04;;;;;;;5.13;1.00;;;;;;;;;;5022943;28;20038;-70
2023/08/04 00:23:30;;;;;;;3.47;0.82;;;;;;;;;;5022861;28;20037;-70
2023/08/04 00:25:56;;;;;;;2.95;1.10;;;;;;;;;;5023209;28;20038;-73
2023/08/04 00:28:22;;;;;;;4.18;1.25;;;;;;;;;;5021989;28;20046;-73
2023/08/04 00:30:48;;;;;;;7.60;3.03;;;;;;;;;;5022085;28;20061;-73
2023/08/04 00:33:15;;;;;;;3.22;0.77;;;;;;;;;;5023825;28;20041;-72
2023/08/04 00:35:41;;;;;;;6.03;0.95;;;;;;;;;;5025138;28;20088;-72
2023/08/04 00:38:07;;;;;;;3.55;1.13;;;;;;;;;;5024368;28;20025;-72
2023/08/04 00:40:33;;;;;;;5.82;1.10;;;;;;;;;;5022685;28;20483;-71
2023/08/04 00:43:00;;;;;;;1.75;0.80;;;;;;;;;;5023722;28;20040;-71
2023/08/04 00:45:28;;;;;;;1.45;0.73;;;;;;;;;;5019367;28;20417;-71
2023/08/04 00:47:54;;;;;;;4.30;0.90;;;;;;;;;;5022114;28;20036;-71
2023/08/04 00:50:21;;;;;;;4.85;1.10;;;;;;;;;;5023819;28;20045;-71
2023/08/04 00:52:47;;;;;;;4.30;0.90;;;;;;;;;;5019631;28;21019;-71
2023/08/04 00:55:14;;;;;;;3.38;0.90;;;;;;;;;;5019286;28;20041;-71
2023/08/04 00:57:40;;;;;;;5.55;1.10;;;;;;;;;;5023477;28;20017;-71
2023/08/04 01:00:07;;;;;;;4.32;1.80;;;;;;;;;;5019841;28;20037;-71
2023/08/04 01:02:34;;;;;;;1.45;1.00;;;;;;;;;;5023600;28;20033;-71
2023/08/04 01:05:00;;;;;;;4.25;1.10;;;;;;;;;;5018426;28;20029;-71
2023/08/04 01:07:28;;;;;;;6.65;1.35;;;;;;;;;;5024606;28;20037;-71
2023/08/04 01:10:03;;;;;;;9.13;1.48;;;;;;;;;;5022326;28;20033;-71
2023/08/04 01:12:37;;;;;;;5.35;1.20;;;;;;;;;;5021075;28;20072;-71
2023/08/04 01:15:04;;;;;;;8.48;1.10;;;;;;;;;;5035494;28;20037;-71
2023/08/04 01:17:31;;;;;;;11.70;2.35;;;;;;;;;;5038239;28;20063;-71
2023/08/04 01:19:57;;;;;;;6.00;1.52;;;;;;;;;;5023853;28;20033;-70
2023/08/04 01:22:24;;;;;;;5.10;1.30;;;;;;;;;;5037083;28;20045;-70
2023/08/04 01:24:51;;;;;;;9.07;1.33;;;;;;;;;;5024285;28;20030;-70
2023/08/04 01:27:55;;;;;;;3.83;1.02;;;;;;;;;;5020116;28;20025;-71
2023/08/04 01:30:23;;;;;;;3.17;0.90;;;;;;;;;;4957208;28;20170;-71
2023/08/04 01:32:49;;;;;;;5.80;1.02;;;;;;;;;;4960764;28;20115;-70
2023/08/04 01:35:15;;;;;;;8.23;1.25;;;;;;;;;;4981201;28;20504;-70
2023/08/04 01:37:43;;;;;;;3.45;1.17;;;;;;;;;;5002335;28;20081;-71
2023/08/04 01:40:09;;;;;;;5.95;0.95;;;;;;;;;;5002517;28;20598;-71
2023/08/04 01:42:35;;;;;;;4.07;1.05;;;;;;;;;;5003439;28;20034;-70
2023/08/04 01:45:01;;;;;;;7.40;1.30;;;;;;;;;;5002808;28;20634;-71
2023/08/04 01:47:27;;;;;;;4.15;1.08;;;;;;;;;;5001429;28;20027;-71
2023/08/04 01:49:53;;;;;;;7.85;0.90;;;;;;;;;;5001935;28;20045;-70
2023/08/04 01:52:19;;;;;;;10.98;1.35;;;;;;;;;;5003023;28;21218;-71
2023/08/04 01:54:45;;;;;;;3.80;0.90;;;;;;;;;;5002700;28;20128;-71
2023/08/04 01:57:11;;;;;;;4.53;0.95;;;;;;;;;;5003074;28;20132;-71
2023/08/04 01:59:37;;;;;;;1.17;0.55;;;;;;;;;;5006358;28;20057;-71
2023/08/04 02:02:03;;;;;;;3.22;0.80;;;;;;;;;;5003677;28;20092;-70
2023/08/04 02:04:29;;;;;;;4.05;0.90;;;;;;;;;;5005885;28;20030;-71
2023/08/04 02:06:55;;;;;;;1.80;0.60;;;;;;;;;;5000596;28;20594;-71
2023/08/04 02:09:22;;;;;;;2.67;0.70;;;;;;;;;;5006480;28;20053;-71
2023/08/04 02:11:49;;;;;;;2.75;0.73;;;;;;;;;;5006482;28;20089;-71
2023/08/04 02:14:16;;;;;;;2.67;0.70;;;;;;;;;;5008302;28;20038;-71
2023/08/04 02:16:42;;;;;;;3.05;0.90;;;;;;;;;;5005129;28;20037;-71
2023/08/04 02:19:10;;;;;;;1.50;0.68;;;;;;;;;;5002247;28;20038;-71
2023/08/04 02:21:36;;;;;;;3.88;0.80;;;;;;;;;;5009639;28;20033;-71
2023/08/04 02:24:02;;;;;;;2.83;0.90;;;;;;;;;;5005572;28;20034;-71
2023/08/04 02:26:28;;;;;;;5.72;1.05;;;;;;;;;;5007308;28;20033;-71
2023/08/04 02:28:55;;;;;;;2.50;0.90;;;;;;;;;;5005216;28;20192;-70
2023/08/04 02:31:22;;;;;;;4.50;1.02;;;;;;;;;;5027421;28;20030;-71
2023/08/04 02:33:49;;;;;;;3.28;0.90;;;;;;;;;;5022938;28;20037;-70
2023/08/04 02:36:15;;;;;;;3.88;1.08;;;;;;;;;;5025962;28;20159;-70
2023/08/04 02:38:41;;;;;;;2.22;0.90;;;;;;;;;;5025492;28;20033;-71
2023/08/04 02:41:09;;;;;;;2.60;1.27;;;;;;;;;;5023703;28;20113;-71
2023/08/04 02:43:35;;;;;;;5.82;1.40;;;;;;;;;;5024538;28;20048;-71
2023/08/04 02:46:01;;;;;;;3.90;1.10;;;;;;;;;;5025742;28;20470;-70
2023/08/04 02:48:27;;;;;;;7.40;1.52;;;;;;;;;;5022107;28;20052;-71
2023/08/04 02:51:03;;;;;;;2.25;1.10;;;;;;;;;;5025990;28;20049;-70
2023/08/04 02:53:29;;;;;;;2.22;1.10;;;;;;;;;;5025160;28;20131;-70
2023/08/04 02:55:55;;;;;;;3.80;0.75;;;;;;;;;;5022973;28;20037;-71
2023/08/04 02:58:22;;;;;;;2.03;1.35;;;;;;;;;;5025761;28;20021;-72
2023/08/04 03:00:48;;;;;;;2.53;1.27;;;;;;;;;;5023594;28;20488;-71
2023/08/04 03:03:15;;;;;;;3.03;1.00;;;;;;;;;;5025618;28;20026;-71
2023/08/04 03:05:41;;;;;;;2.40;0.82;;;;;;;;;;5021434;28;20042;-72
2023/08/04 03:08:07;;;;;;;3.03;1.02;;;;;;;;;;5025034;28;20036;-71
2023/08/04 03:10:33;;;;;;;3.17;1.10;;;;;;;;;;5025011;28;20525;-71
2023/08/04 03:12:59;;;;;;;5.82;1.60;;;;;;;;;;5023646;28;20041;-71
2023/08/04 03:15:25;;;;;;;3.42;1.00;;;;;;;;;;5021807;28;20574;-72
2023/08/04 03:17:51;;;;;;;2.40;0.93;;;;;;;;;;5020049;28;20048;-72
2023/08/04 03:20:17;;;;;;;5.57;1.48;;;;;;;;;;5023808;28;20044;-70
2023/08/04 03:22:43;;;;;;;3.60;1.30;;;;;;;;;;5021784;28;20037;-70
2023/08/04 03:25:09;;;;;;;3.30;1.58;;;;;;;;;;5025125;28;20037;-71
2023/08/04 03:27:36;;;;;;;5.63;1.50;;;;;;;;;;5026057;28;20037;-70
2023/08/04 03:30:02;;;;;;;5.72;1.52;;;;;;;;;;5025662;28;20049;-71
2023/08/04 03:32:28;;;;;;;15.95;3.33;;;;;;;;;;5024466;28;20048;-72
2023/08/04 03:34:54;;;;;;;3.97;1.10;;;;;;;;;;5023227;28;20025;-71
2023/08/04 03:37:20;;;;;;;2.72;1.02;;;;;;;;;;5026054;28;20052;-72
2023/08/04 03:39:46;;;;;;;2.40;1.35;;;;;;;;;;5026196;28;20091;-72
2023/08/04 03:42:12;;;;;;;4.22;1.27;;;;;;;;;;5025336;28;20041;-72
2023/08/04 03:44:38;;;;;;;2.80;1.33;;;;;;;;;;5023593;28;20033;-72
2023/08/04 03:47:04;;;;;;;7.40;1.98;;;;;;;;;;5022202;28;20037;-72
2023/08/04 03:49:30;;;;;;;9.93;1.65;;;;;;;;;;5020646;28;20091;-72
2023/08/04 03:51:56;;;;;;;5.07;1.60;;;;;;;;;;5018591;28;20042;-72
2023/08/04 03:54:22;;;;;;;6.82;1.98;;;;;;;;;;5024485;28;20025;-72
2023/08/04 03:56:48;;;;;;;6.68;1.35;;;;;;;;;;5019342;28;20541;-72
2023/08/04 03:59:14;;;;;;;5.63;1.50;;;;;;;;;;5018823;28;20037;-72
2023/08/04 04:01:40;;;;;;;11.07;2.58;;;;;;;;;;5037069;28;20044;-72
2023/08/04 04:04:06;;;;;;;8.73;2.75;;;;;;;;;;5024273;28;20029;-73
2023/08/04 04:06:32;;;;;;;4.20;1.83;;;;;;;;;;5024260;28;20677;-69
2023/08/04 04:08:58;;;;;;;5.63;2.08;;;;;;;;;;5024660;28;20047;-72
2023/08/04 04:11:24;;;;;;;5.72;1.83;;;;;;;;;;5020349;28;20044;-72
2023/08/04 04:13:50;;;;;;;3.65;1.63;;;;;;;;;;5020512;28;20038;-72
2023/08/04 04:16:16;;;;;;;8.25;2.63;;;;;;;;;;5023694;28;20499;-71
2023/08/04 04:18:42;;;;;;;8.38;2.47;;;;;;;;;;5023026;28;20059;-71
2023/08/04 04:21:08;;;;;;;3.95;2.05;;;;;;;;;;5023969;28;20030;-71
2023/08/04 04:23:34;;;;;;;3.97;2.28;;;;;;;;;;5021397;28;20475;-71
2023/08/04 04:26:00;;;;;;;7.55;2.13;;;;;;;;;;5019380;28;20077;-72
2023/08/04 04:28:26;;;;;;;6.82;2.30;;;;;;;;;;5017372;28;20319;-71
2023/08/04 04:30:52;;;;;;;5.10;2.40;;;;;;;;;;5016714;28;20238;-72
2023/08/04 04:33:18;;;;;;;11.68;3.22;;;;;;;;;;5022134;28;20033;-72
2023/08/04 04:35:49;;;;;;;6.32;2.20;;;;;;;;;;5023306;28;20025;-72
2023/08/04 04:38:15;;;;;;;3.67;2.60;;;;;;;;;;5021903;28;20529;-72
2023/08/04 04:40:41;;;;;;;5.88;2.13;;;;;;;;;;5030337;28;20614;-79
2023/08/04 04:43:07;;;;;;;5.22;3.13;;;;;;;;;;5028799;28;20034;-80
2023/08/04 04:45:33;;;;;;;9.43;2.17;;;;;;;;;;5027914;28;20037;-77
2023/08/04 04:47:59;;;;;;;6.85;2.60;;;;;;;;;;5025687;28;21920;-77
2023/08/04 04:50:25;;;;;;;6.78;2.40;;;;;;;;;;5020300;28;20037;-72
2023/08/04 04:52:51;;;;;;;4.68;2.30;;;;;;;;;;5018603;28;20081;-72
2023/08/04 04:55:17;;;;;;;9.55;2.53;;;;;;;;;;5020340;28;20159;-73
2023/08/04 04:57:43;;;;;;;5.60;2.20;;;;;;;;;;5021578;28;20479;-73
2023/08/04 05:00:10;;;;;;;6.60;2.60;;;;;;;;;;5023270;28;20056;-73
2023/08/04 05:02:36;;;;;;;8.50;3.25;;;;;;;;;;5023221;28;20068;-73
2023/08/04 05:05:02;;;;;;;5.70;2.40;;;;;;;;;;5021958;28;20033;-73
2023/08/04 05:07:28;;;;;;;5.45;2.05;;;;;;;;;;5021609;28;20168;-73
2023/08/04 05:09:55;;;;;;;5.72;2.20;;;;;;;;;;5020557;28;20110;-72
2023/08/04 05:12:21;;;;;;;4.78;2.20;;;;;;;;;;5024255;28;20487;-72
2023/08/04 05:14:47;;;;;;;7.90;2.90;;;;;;;;;;5018948;28;20386;-72
2023/08/04 05:17:13;;;;;;;6.03;1.88;;;;;;;;;;5024013;28;20099;-73
2023/08/04 05:19:39;;;;;;;82.85;53.38;;;;;;;;;;5020273;28;20041;-72
2023/08/04 05:22:06;;;;;;;7.93;2.58;;;;;;;;;;5022425;28;20069;-72
2023/08/04 05:24:32;;;;;;;7.50;2.15;;;;;;;;;;5018738;28;20056;-72
2023/08/04 05:26:58;;;;;;;5.20;1.60;;;;;;;;;;5022104;28;20040;-72
2023/08/04 05:29:24;;;;;;;3.47;1.88;;;;;;;;;;5019802;28;20148;-72
2023/08/04 05:31:50;;;;;;;2.97;1.50;;;;;;;;;;5023717;28;20117;-71
2023/08/04 05:34:16;;;;;;;3.67;1.42;;;;;;;;;;5023086;28;20589;-72
2023/08/04 05:36:42;;;;;;;5.18;1.77;;;;;;;;;;5022590;28;20072;-73
2023/08/04 05:39:08;;;;;;;4.65;1.77;;;;;;;;;;5019594;28;20280;-72
2023/08/04 05:41:34;;;;;;;7.63;1.77;;;;;;;;;;5025010;28;20021;-71
2023/08/04 05:44:00;;;;;;;3.45;1.70;;;;;;;;;;5027310;28;20017;-73
2023/08/04 05:46:26;;;;;;;6.10;1.58;;;;;;;;;;5022594;28;20108;-72
2023/08/04 05:48:52;;;;;;;3.63;1.60;;;;;;;;;;5023133;28;20087;-71
2023/08/04 05:51:18;;;;;;;6.07;2.47;;;;;;;;;;5021951;28;20025;-72
2023/08/04 05:53:44;;;;;;;7.15;1.73;;;;;;;;;;5025509;28;20556;-72
2023/08/04 05:56:10;;;;;;;4.95;1.60;;;;;;;;;;5027264;28;20025;-72
2023/08/04 05:58:36;;;;;;;6.00;2.00;;;;;;;;;;5025435;28;20239;-73
2023/08/04 06:01:02;;;;;;;7.90;1.70;;;;;;;;;;5026526;28;20104;-73
2023/08/04 06:03:28;;;;;;;5.10;1.55;;;;;;;;;;5025681;28;20536;-74
2023/08/04 06:05:54;;;;;;;2.33;1.55;;;;;;;;;;5028082;28;20037;-74
2023/08/04 06:08:20;;;;;;;6.28;1.55;;;;;;;;;;5026325;28;20060;-72
2023/08/04 06:10:46;;;;;;;4.97;2.08;;;;;;;;;;5028192;28;20081;-74
2023/08/04 06:13:12;;;;;;;2.63;1.30;;;;;;;;;;5026528;28;20105;-75
2023/08/04 06:15:38;;;;;;;4.82;1.58;;;;;;;;;;5024309;28;20533;-75
2023/08/04 06:18:04;;;;;;;4.03;1.88;;;;;;;;;;5024019;28;20103;-75
2023/08/04 06:20:30;;;;;;;5.38;1.50;;;;;;;;;;5026399;28;20040;-74
2023/08/04 06:22:57;;;;;;;4.20;1.60;;;;;;;;;;5026390;28;20041;-73
2023/08/04 06:25:23;;;;;;;8.32;1.73;;;;;;;;;;5018538;28;20065;-72
2023/08/04 06:27:49;;;;;;;9.13;6.45;;;;;;;;;;5023802;28;20068;-76
2023/08/04 06:30:16;;;;;;;7.45;2.40;;;;;;;;;;5024101;28;20148;-75
2023/08/04 06:32:42;;;;;;;21.75;12.43;;;;;;;;;;5041420;28;20112;-73
2023/08/04 06:35:08;;;;;;;4.70;2.38;;;;;;;;;;5042525;28;20132;-73
2023/08/04 06:37:34;;;;;;;5.47;1.52;;;;;;;;;;5027227;28;20371;-72
2023/08/04 06:40:00;;;;;;;6.25;1.83;;;;;;;;;;5025271;28;20041;-72
2023/08/04 06:42:27;;;;;;;3.95;1.65;;;;;;;;;;5016404;28;20041;-71
2023/08/04 06:44:53;;;;;;;6.13;1.70;;;;;;;;;;5020598;28;20209;-71
2023/08/04 06:47:19;;;;;;;17.88;3.00;;;;;;;;;;5024485;28;20110;-72
2023/08/04 06:49:45;;;;;;;6.38;1.40;;;;;;;;;;5023913;28;20113;-71
2023/08/04 06:52:11;;;;;;;4.28;1.60;;;;;;;;;;5040600;28;20033;-72
2023/08/04 06:54:37;;;;;;;7.35;2.60;;;;;;;;;;5023850;28;20104;-71
2023/08/04 06:57:03;;;;;;;4.53;1.52;;;;;;;;;;5021542;28;20061;-72
2023/08/04 06:59:29;;;;;;;3.15;1.30;;;;;;;;;;5041616;28;20029;-72
2023/08/04 07:01:55;;;;;;;6.85;1.60;;;;;;;;;;5025936;28;20037;-72
2023/08/04 07:04:21;;;;;;;8.90;1.83;;;;;;;;;;5026417;28;20029;-75
2023/08/04 07:06:47;;;;;;;5.53;1.55;;;;;;;;;;5026304;28;20059;-79
2023/08/04 07:09:13;;;;;;;11.18;5.38;;;;;;;;;;5025192;28;20037;-74
2023/08/04 07:11:39;;;;;;;4.28;1.92;;;;;;;;;;5025444;28;20045;-75
2023/08/04 07:14:05;;;;;;;5.28;1.23;;;;;;;;;;5026011;28;20037;-74
2023/08/04 07:16:31;;;;;;;3.03;1.58;;;;;;;;;;5015944;28;20029;-74
2023/08/04 07:18:57;;;;;;;4.90;1.23;;;;;;;;;;5021832;28;20171;-74
2023/08/04 07:21:23;;;;;;;7.18;1.27;;;;;;;;;;5022002;28;20071;-75
2023/08/04 07:23:49;;;;;;;4.93;1.20;;;;;;;;;;5020451;28;20557;-75
2023/08/04 07:26:15;;;;;;;3.95;0.98;;;;;;;;;;5024240;28;20034;-75
2023/08/04 07:28:41;;;;;;;3.40;1.08;;;;;;;;;;5022001;28;20104;-74
2023/08/04 07:31:08;;;;;;;3.03;1.15;;;;;;;;;;5022380;28;20344;-75
2023/08/04 07:33:35;;;;;;;5.03;0.70;;;;;;;;;;5020257;28;20021;-74
2023/08/04 07:36:01;;;;;;;3.65;1.20;;;;;;;;;;5021597;28;20467;-75
2023/08/04 07:38:28;;;;;;;5.80;1.15;;;;;;;;;;5019854;28;20038;-74
2023/08/04 07:40:54;;;;;;;5.28;1.65;;;;;;;;;;5019233;28;20060;-75
2023/08/04 07:43:20;;;;;;;2.88;1.30;;;;;;;;;;5025430;28;20037;-74
2023/08/04 07:45:46;;;;;;;6.97;1.70;;;;;;;;;;5024233;28;20075;-74
2023/08/04 07:48:12;;;;;;;5.15;1.00;;;;;;;;;;5023828;28;20598;-75
2023/08/04 07:50:43;;;;;;;3.88;1.10;;;;;;;;;;5022933;28;20103;-75
2023/08/04 07:53:09;;;;;;;4.80;1.17;;;;;;;;;;5037148;28;20021;-74
2023/08/04 07:55:36;;;;;;;3.65;1.00;;;;;;;;;;5023573;28;20091;-75
2023/08/04 07:58:02;;;;;;;4.53;1.00;;;;;;;;;;5025179;28;20037;-75
2023/08/04 08:00:28;;;;;;;4.82;2.05;;;;;;;;;;5022097;28;20447;-72
2023/08/04 08:02:54;;;;;;;10.07;1.55;;;;;;;;;;5022193;28;20095;-72
2023/08/04 08:05:20;;;;;;;4.50;1.02;;;;;;;;;;5024310;28;20041;-72
2023/08/04 08:07:46;;;;;;;3.05;1.30;;;;;;;;;;5024210;28;20041;-73
2023/08/04 08:10:13;;;;;;;7.03;1.50;;;;;;;;;;5018516;28;20052;-73
2023/08/04 08:12:39;;;;;;;3.75;1.48;;;;;;;;;;5021966;28;20075;-74
2023/08/04 08:15:05;;;;;;;5.97;0.93;;;;;;;;;;5023880;28;20052;-73
2023/08/04 08:17:32;;;;;;;3.97;1.00;;;;;;;;;;5023504;28;20029;-73
2023/08/04 08:19:58;;;;;;;2.53;0.93;;;;;;;;;;5024300;28;20037;-73
2023/08/04 08:22:24;;;;;;;3.83;1.02;;;;;;;;;;5023270;28;20048;-73
2023/08/04 08:24:53;;;;;;;6.57;1.42;;;;;;;;;;5024915;28;20446;-73
2023/08/04 08:27:19;;;;;;;6.38;1.35;;;;;;;;;;5022272;28;20501;-73
2023/08/04 08:29:45;;;;;;;4.40;1.30;;;;;;;;;;5025042;28;20552;-73
2023/08/04 08:32:11;;;;;;;6.45;1.42;;;;;;;;;;5021791;28;20043;-74
2023/08/04 08:34:38;;;;;;;8.93;1.75;;;;;;;;;;5023200;28;20077;-73
2023/08/04 08:37:08;;;;;;;5.78;1.30;;;;;;;;;;5020064;28;20029;-73
2023/08/04 08:39:34;;;;;;;2.70;0.98;;;;;;;;;;5024240;28;20487;-73
2023/08/04 08:42:01;;;;;;;10.05;1.65;;;;;;;;;;5023319;28;20045;-73
2023/08/04 08:44:27;;;;;;;4.65;1.42;;;;;;;;;;5022337;28;20108;-73
2023/08/04 08:46:53;;;;;;;5.82;1.10;;;;;;;;;;5021370;28;20159;-73
2023/08/04 08:49:27;;;;;;;3.28;1.00;;;;;;;;;;5021350;28;20044;-73
2023/08/04 08:51:55;;;;;;;3.55;0.80;;;;;;;;;;5022680;28;20050;-73
2023/08/04 08:54:22;;;;;;;3.33;1.05;;;;;;;;;;5021279;28;20099;-73
2023/08/04 08:56:48;;;;;;;4.85;0.95;;;;;;;;;;5020812;28;20041;-74
2023/08/04 08:59:14;;;;;;;4.10;0.90;;;;;;;;;;5021079;28;20037;-74
2023/08/04 09:01:40;;;;;;;3.55;0.90;;;;;;;;;;5023317;28;20108;-74
2023/08/04 09:04:06;;;;;;;3.25;0.98;;;;;;;;;;5021618;28;20029;-74
2023/08/04 09:06:32;;;;;;;2.20;0.63;;;;;;;;;;5023617;28;20083;-74
2023/08/04 09:09:01;;;;;;;3.72;0.60;;;;;;;;;;5023023;28;20108;-74
2023/08/04 09:11:30;;;;;;;2.92;0.98;;;;;;;;;;5035890;28;20025;-73
2023/08/04 09:13:56;;;;;;;2.92;0.80;;;;;;;;;;5021470;28;20362;-73
2023/08/04 09:16:42;;;;;;;3.35;0.80;;;;;;;;;;5023964;28;20053;-74
2023/08/04 09:19:09;;;;;;;3.72;0.70;;;;;;;;;;5021817;28;20091;-73
2023/08/04 09:21:35;;;;;;;3.65;1.08;;;;;;;;;;5022113;28;20088;-73
2023/08/04 09:24:02;;;;;;;3.50;0.90;;;;;;;;;;5021918;28;20021;-73
2023/08/04 09:26:48;;;;;;;4.47;0.88;;;;;;;;;;5021516;28;20042;-73
2023/08/04 09:29:15;;;;;;;5.13;1.30;;;;;;;;;;5021575;28;20061;-74
2023/08/04 09:31:42;;;;;;;3.40;0.90;;;;;;;;;;5020754;28;20030;-74
2023/08/04 09:34:09;;;;;;;4.13;1.20;;;;;;;;;;5022489;28;20029;-74
2023/08/04 09:36:42;;;;;;;9.07;2.10;;;;;;;;;;5024256;28;20029;-72
2023/08/04 09:39:12;;;;;;;7.28;1.15;;;;;;;;;;5035282;28;20030;-76
2023/08/04 09:41:47;;;;;;;4.55;1.73;;;;;;;;;;5026804;28;20022;-75
2023/08/04 09:44:14;;;;;;;9.45;3.35;;;;;;;;;;5027938;28;20030;-79
2023/08/04 09:46:48;;;;;;;8.23;1.90;;;;;;;;;;5024322;28;20033;-71
2023/08/04 09:49:14;;;;;;;5.28;1.85;;;;;;;;;;5022409;28;20041;-75
2023/08/04 09:51:43;;;;;;;8.02;1.70;;;;;;;;;;5020888;28;20037;-73
2023/08/04 09:54:10;;;;;;;9.80;1.50;;;;;;;;;;5019008;28;20354;-75
2023/08/04 09:56:36;;;;;;;7.00;1.67;;;;;;;;;;5021320;28;20037;-74
2023/08/04 09:59:02;;;;;;;4.32;1.13;;;;;;;;;;5019891;28;20026;-76
2023/08/04 10:01:29;;;;;;;5.68;1.35;;;;;;;;;;5020297;28;20117;-74
2023/08/04 10:03:57;;;;;;;9.27;1.25;;;;;;;;;;5021342;28;20071;-75
2023/08/04 10:06:23;;;;;;;6.28;1.83;;;;;;;;;;5002546;28;20112;-76
2023/08/04 10:08:50;;;;;;;4.03;1.23;;;;;;;;;;5020478;28;20622;-76
2023/08/04 10:11:16;;;;;;;8.05;1.70;;;;;;;;;;5021254;28;20044;-77
2023/08/04 10:13:44;;;;;;;11.15;3.80;;;;;;;;;;5018766;28;20033;-76
2023/08/04 10:16:12;;;;;;;6.00;1.40;;;;;;;;;;5022618;28;20031;-76
2023/08/04 10:18:47;;;;;;;6.10;1.40;;;;;;;;;;5016151;28;20037;-75
2023/08/04 10:21:13;;;;;;;10.05;2.40;;;;;;;;;;5016269;28;20064;-75
2023/08/04 10:23:40;;;;;;;9.73;2.00;;;;;;;;;;5017923;28;20117;-75
2023/08/04 10:26:06;;;;;;;19.17;3.08;;;;;;;;;;5023313;28;20521;-75
2023/08/04 10:28:32;;;;;;;6.55;1.45;;;;;;;;;;5023613;28;20376;-75
2023/08/04 10:31:06;;;;;;;8.15;1.60;;;;;;;;;;5023483;28;20060;-76
2023/08/04 10:33:32;;;;;;;6.57;1.67;;;;;;;;;;5025875;28;20025;-75
2023/08/04 10:36:09;;;;;;;5.35;1.63;;;;;;;;;;5024775;28;20055;-75
2023/08/04 10:38:44;;;;;;;10.10;2.05;;;;;;;;;;5019593;28;20029;-74
2023/08/04 10:41:11;;;;;;;8.40;1.83;;;;;;;;;;5025957;28;20129;-74
2023/08/04 10:43:40;;;;;;;6.85;1.63;;;;;;;;;;5025343;28;20052;-75
2023/08/04 10:46:10;;;;;;;4.88;1.55;;;;;;;;;;5027280;28;20112;-75
2023/08/04 10:48:38;;;;;;;5.47;1.48;;;;;;;;;;5018555;28;20445;-73
2023/08/04 10:51:04;;;;;;;8.45;1.73;;;;;;;;;;5026474;28;20044;-72
2023/08/04 10:53:30;;;;;;;7.55;1.33;;;;;;;;;;5024015;28;20176;-73
2023/08/04 10:55:57;;;;;;;3.63;1.10;;;;;;;;;;5026503;28;20063;-72
2023/08/04 10:58:24;;;;;;;4.75;1.30;;;;;;;;;;5018271;28;20037;-74
2023/08/04 11:00:50;;;;;;;5.25;0.93;;;;;;;;;;5022309;28;20049;-73
2023/08/04 11:03:21;;;;;;;3.30;0.93;;;;;;;;;;5025146;28;20040;-73
2023/08/04 11:05:47;;;;;;;120.65;90.15;;;;;;;;;;5021827;28;20061;-73
2023/08/04 11:08:13;;;;;;;10.63;3.95;;;;;;;;;;5022432;28;20435;-72
2023/08/04 11:10:45;;;;;;;4.80;1.75;;;;;;;;;;5024751;28;20042;-73
2023/08/04 11:13:11;;;;;;;5.22;1.10;;;;;;;;;;5024950;28;20037;-74
2023/08/04 11:15:43;;;;;;;3.78;0.98;;;;;;;;;;5022311;28;20079;-73
2023/08/04 11:18:14;;;;;;;8.38;1.20;;;;;;;;;;5023109;28;20622;-73
2023/08/04 11:20:40;;;;;;;3.67;1.38;;;;;;;;;;5022254;28;20041;-73
2023/08/04 11:23:09;;;;;;;6.93;1.35;;;;;;;;;;5023130;28;20493;-73
2023/08/04 11:25:35;;;;;;;3.88;1.02;;;;;;;;;;5027896;28;20052;-72
2023/08/04 11:28:02;;;;;;;6.25;1.00;;;;;;;;;;5030475;28;20033;-73
2023/08/04 11:30:28;;;;;;;4.40;1.23;;;;;;;;;;5028391;28;20160;-73
2023/08/04 11:32:54;;;;;;;3.72;0.98;;;;;;;;;;5033006;28;20554;-72
2023/08/04 11:35:20;;;;;;;3.90;0.88;;;;;;;;;;5023551;28;20042;-73
2023/08/04 11:37:46;;;;;;;3.78;0.70;;;;;;;;;;5028481;28;20049;-73
2023/08/04 11:40:22;;;;;;;4.22;1.38;;;;;;;;;;5028376;28;20503;-72
2023/08/04 11:42:48;;;;;;;3.75;0.98;;;;;;;;;;5032685;28;20486;-73
2023/08/04 11:45:14;;;;;;;2.85;0.90;;;;;;;;;;5029436;28;20083;-72
2023/08/04 11:47:40;;;;;;;6.53;1.48;;;;;;;;;;5021175;28;20479;-72
2023/08/04 11:50:10;;;;;;;4.63;0.82;;;;;;;;;;5029708;28;20056;-72
2023/08/04 11:52:39;;;;;;;2.83;0.70;;;;;;;;;;5025422;28;20034;-72
2023/08/04 11:55:06;;;;;;;2.05;0.77;;;;;;;;;;5027438;28;20030;-72
2023/08/04 11:57:32;;;;;;;3.17;0.80;;;;;;;;;;5029062;28;20030;-72
2023/08/04 11:59:58;;;;;;;3.50;0.80;;;;;;;;;;5028483;28;20033;-72
2023/08/04 12:02:26;;;;;;;3.40;1.10;;;;;;;;;;5028074;28;20048;-73
2023/08/04 12:05:24;;;;;;;6.95;1.05;;;;;;;;;;5026706;28;20694;-73
2023/08/04 12:07:53;;;;;;;7.05;1.67;;;;;;;;;;5003804;28;20045;-73
2023/08/04 12:10:19;;;;;;;6.28;0.98;;;;;;;;;;5028377;28;20029;-73
2023/08/04 12:12:45;;;;;;;5.70;1.33;;;;;;;;;;5022391;28;20030;-72
2023/08/04 12:15:12;;;;;;;6.50;1.30;;;;;;;;;;5028494;28;20491;-73
2023/08/04 12:17:42;;;;;;;4.97;1.50;;;;;;;;;;5030554;28;20444;-72
2023/08/04 12:20:09;;;;;;;1.20;0.60;;;;;;;;;;5028483;28;20065;-72
2023/08/04 12:22:38;;;;;;;8.43;1.83;;;;;;;;;;5026760;28;20079;-72
2023/08/04 12:25:08;;;;;;;4.43;1.20;;;;;;;;;;5024076;28;20388;-72
2023/08/04 12:27:35;;;;;;;4.68;1.17;;;;;;;;;;5025060;28;20121;-73
2023/08/04 12:30:01;;;;;;;6.22;1.40;;;;;;;;;;5027732;28;20064;-72
2023/08/04 12:32:27;;;;;;;4.40;1.05;;;;;;;;;;5026968;28;20037;-72
2023/08/04 12:34:53;;;;;;;5.45;1.52;;;;;;;;;;5028148;28;20029;-72
2023/08/04 12:37:19;;;;;;;4.85;1.13;;;;;;;;;;5027159;28;20038;-73
2023/08/04 12:39:45;;;;;;;5.55;1.23;;;;;;;;;;5028394;28;20076;-73
2023/08/04 12:42:11;;;;;;;6.70;1.95;;;;;;;;;;5024053;28;20021;-73
2023/08/04 12:44:37;;;;;;;6.50;1.25;;;;;;;;;;5028507;28;20171;-73
2023/08/04 12:47:03;;;;;;;4.97;1.40;;;;;;;;;;5026650;28;20102;-73
2023/08/04 12:49:29;;;;;;;5.43;1.85;;;;;;;;;;5027205;28;20056;-73
2023/08/04 12:51:56;;;;;;;4.70;1.13;;;;;;;;;;5027618;28;20042;-73
2023/08/04 12:54:23;;;;;;;3.58;1.08;;;;;;;;;;5027504;28;20043;-73
2023/08/04 12:56:51;;;;;;;5.00;1.40;;;;;;;;;;5023755;28;20022;-74
2023/08/04 12:59:18;;;;;;;10.45;1.80;;;;;;;;;;5024800;28;20038;-76
2023/08/04 13:01:44;;;;;;;6.95;1.40;;;;;;;;;;5026053;28;20109;-74
2023/08/04 13:04:10;;;;;;;6.38;1.35;;;;;;;;;;5026631;28;20105;-75
2023/08/04 13:06:35;;;;;;;4.28;1.25;;;;;;;;;;5026397;28;20061;-74
2023/08/04 13:09:02;;;;;;;8.40;2.27;;;;;;;;;;5026429;28;20122;-76
2023/08/04 13:11:28;;;;;;;91.72;70.95;;;;;;;;;;5020875;28;20034;-74
2023/08/04 13:13:54;;;;;;;7.00;1.98;;;;;;;;;;5025379;28;20037;-73
2023/08/04 13:16:20;;;;;;;6.78;1.45;;;;;;;;;;5025778;28;20148;-75
2023/08/04 13:18:46;;;;;;;3.58;1.20;;;;;;;;;;5021841;28;20034;-72
2023/08/04 13:21:12;;;;;;;3.25;1.10;;;;;;;;;;5019257;28;21220;-73
2023/08/04 13:23:38;;;;;;;4.75;1.00;;;;;;;;;;5017562;28;20049;-72
2023/08/04 13:26:05;;;;;;;9.27;1.80;;;;;;;;;;5017382;28;20108;-74
2023/08/04 13:28:31;;;;;;;2.85;1.33;;;;;;;;;;5018980;28;20029;-72
2023/08/04 13:31:04;;;;;;;9.02;1.88;;;;;;;;;;5015839;28;20048;-72
2023/08/04 13:33:30;;;;;;;5.60;1.35;;;;;;;;;;5015977;28;20021;-71
2023/08/04 13:35:56;;;;;;;4.20;1.10;;;;;;;;;;5019876;28;20675;-74
2023/08/04 13:38:22;;;;;;;5.57;1.65;;;;;;;;;;5021978;28;20034;-73
2023/08/04 13:40:48;;;;;;;4.97;2.75;;;;;;;;;;5016951;28;20034;-73
2023/08/04 13:43:15;;;;;;;5.22;2.00;;;;;;;;;;5018833;28;20029;-73
2023/08/04 13:45:41;;;;;;;6.25;1.45;;;;;;;;;;5019376;28;20112;-72
2023/08/04 13:48:07;;;;;;;5.03;1.27;;;;;;;;;;5020708;28;20118;-72
2023/08/04 13:50:33;;;;;;;5.82;1.70;;;;;;;;;;5020454;28;20584;-75
2023/08/04 13:52:59;;;;;;;6.45;1.45;;;;;;;;;;5020146;28;20128;-74
2023/08/04 13:55:25;;;;;;;7.78;2.10;;;;;;;;;;5016783;28;20046;-74
2023/08/04 13:57:51;;;;;;;8.35;1.45;;;;;;;;;;5021492;28;20038;-73
2023/08/04 14:00:17;;;;;;;5.75;1.58;;;;;;;;;;5021061;28;20075;-75
2023/08/04 14:02:43;;;;;;;7.05;1.52;;;;;;;;;;5024754;28;20033;-74
2023/08/04 14:05:10;;;;;;;4.22;1.27;;;;;;;;;;5022677;28;20045;-74
2023/08/04 14:07:41;;;;;;;3.92;1.52;;;;;;;;;;5023589;28;20061;-72
2023/08/04 14:10:10;;;;;;;4.93;1.40;;;;;;;;;;5021878;28;20132;-75
2023/08/04 14:12:37;;;;;;;6.53;1.48;;;;;;;;;;5022727;28;20060;-72
2023/08/04 14:15:03;;;;;;;6.03;1.48;;;;;;;;;;5025435;28;20472;-74
2023/08/04 14:17:29;;;;;;;4.55;1.17;;;;;;;;;;5023442;28;20030;-74
2023/08/04 14:19:55;;;;;;;7.38;1.75;;;;;;;;;;5022554;28;20041;-75
2023/08/04 14:22:21;;;;;;;3.38;1.70;;;;;;;;;;5021488;28;20190;-72
2023/08/04 14:24:49;;;;;;;5.70;1.35;;;;;;;;;;5017280;28;20449;-72
2023/08/04 14:27:15;;;;;;;4.43;1.50;;;;;;;;;;5023311;28;20029;-72
2023/08/04 14:29:41;;;;;;;3.67;1.45;;;;;;;;;;5021391;28;20160;-73
2023/08/04 14:32:08;;;;;;;9.65;2.75;;;;;;;;;;5023484;28;20064;-73
2023/08/04 14:34:35;;;;;;;2.50;0.80;;;;;;;;;;5024227;28;20060;-72
2023/08/04 14:37:01;;;;;;;5.55;1.40;;;;;;;;;;5024767;28;20032;-71
2023/08/04 14:39:27;;;;;;;4.05;1.48;;;;;;;;;;5019191;28;20045;-72
2023/08/04 14:41:53;;;;;;;4.07;1.10;;;;;;;;;;5018668;28;20502;-72